Estación Meteorológica Peña el Pijo (Robertgarden) [ 06/14/24 09:24:46 CEST ]

Fecha Hora Presion(HPa) Temp (°C) Humedad % Rocio (°C) Viento ( m/s) Direccion Lluvia 1Hora(mm) Lluvia 24H(mm) LLuvia Total(mm)
2015-Aug-03 01:01:22 1014.600 21.0 74 16.1         470.34
2015-Aug-03 02:01:11 1014.400 20.1 78 16.2         470.34
2015-Aug-03 03:01:17 1014.200 18.5 79 14.8         470.34
2015-Aug-03 04:01:15 1013.800 17.4 81 14.1         470.34
2015-Aug-03 05:01:14 1013.700 17.3 82 14.2         470.34
2015-Aug-03 06:01:16 1013.300 17.6 84 14.9         470.34
2015-Aug-03 07:01:13 1013.300 17.3 84 14.6         470.34
2015-Aug-03 08:01:15 1013.200 17.0 85 14.4         470.34
2015-Aug-03 09:01:15 1012.900 20.7 84 17.9         470.34
2015-Aug-03 10:01:15 1013.000 26.1 66 19.2         470.34
2015-Aug-03 11:01:15 1013.100 29.8 48 17.6         470.34
2015-Aug-03 12:01:18 1013.200 29.2 43 15.3         470.34
2015-Aug-03 13:01:14 1013.500 29.4 43 15.5         470.34
2015-Aug-03 14:01:17 1013.000 29.0 42 14.8         470.34
2015-Aug-03 15:01:13 1013.000 33.6 36 16.4         470.34
2015-Aug-03 16:01:17 1013.000 34.2 28 12.9 1.0 SSE     470.34
2015-Aug-03 17:01:13 1012.300 34.4 29 13.7         470.34
2015-Aug-03 18:01:17 1012.100 34.1 27 12.2         470.34
2015-Aug-03 19:01:14 1011.900 33.2 27 11.5         470.34
2015-Aug-03 20:01:14 1011.900 31.2 31 12.0         470.34
2015-Aug-03 21:01:14 1012.000 27.8 37 11.7         470.34
2015-Aug-03 22:01:13 1012.500 26.0 41 11.7         470.34
2015-Aug-03 23:01:17 1013.100 23.1 48 11.4         470.34

Temperatura Máxima:34°    Temperatura Mínima:17°
Presión Máxima:1014.600 Hpa    Presión Mínima:1011.900 Hpa


Volver